Time;durP1;ratioP1;P1;durP2;ratioP2;P2;SDS_P1;SDS_P2;PMS_P1;PMS_P2;Temp;Humidity;BMP_temperature;BMP_pressure;BME280_temperature;BME280_humidity;BME280_pressure;Samples;Min_cycle;Max_cycle;Signal;HPM_P1;HPM_P2
2022/03/02 00:02:20;;;;;;;5.85;1.45;;;25.10;77.60;;;;;;5084377;23;20104;-59
2022/03/02 00:04:44;;;;;;;4.85;1.48;;;25.10;77.60;;;;;;5082694;23;20444;-60
2022/03/02 00:07:06;;;;;;;6.15;1.40;;;25.10;77.50;;;;;;5088068;23;20029;-59
2022/03/02 00:09:29;;;;;;;7.18;1.70;;;25.10;77.50;;;;;;5085178;23;20016;-59
2022/03/02 00:11:52;;;;;;;4.47;1.73;;;25.10;77.50;;;;;;5083057;23;20025;-58
2022/03/02 00:14:14;;;;;;;4.07;1.25;;;25.10;77.50;;;;;;5083561;23;20107;-58
2022/03/02 00:16:37;;;;;;;5.18;1.38;;;25.10;77.40;;;;;;5086297;23;20044;-59
2022/03/02 00:19:00;;;;;;;4.13;1.27;;;25.20;77.50;;;;;;5081356;23;20019;-57
2022/03/02 00:21:23;;;;;;;5.28;1.60;;;25.20;77.40;;;;;;5085555;23;20008;-57
2022/03/02 00:23:46;;;;;;;2.63;1.20;;;25.20;77.40;;;;;;5085610;23;20465;-61
2022/03/02 00:26:09;;;;;;;7.53;1.40;;;25.20;77.30;;;;;;5081221;23;20401;-61
2022/03/02 00:28:31;;;;;;;9.07;1.85;;;25.20;77.40;;;;;;5085517;23;20273;-60
2022/03/02 00:30:54;;;;;;;4.03;1.33;;;25.20;77.40;;;;;;5087083;23;20028;-60
2022/03/02 00:33:17;;;;;;;7.80;1.65;;;25.20;77.40;;;;;;5083354;23;20717;-59
2022/03/02 00:35:39;;;;;;;8.10;1.80;;;25.30;77.40;;;;;;5085025;23;20009;-59
2022/03/02 00:38:03;;;;;;;5.85;1.77;;;25.20;77.40;;;;;;5083594;23;20021;-58
2022/03/02 00:40:26;;;;;;;8.65;1.30;;;25.30;77.30;;;;;;5069450;23;20048;-59
2022/03/02 00:42:49;;;;;;;3.35;1.48;;;25.30;77.30;;;;;;5072289;23;20080;-58
2022/03/02 00:45:12;;;;;;;5.88;1.77;;;25.30;77.30;;;;;;5081748;23;20520;-58
2022/03/02 00:47:35;;;;;;;4.60;1.35;;;25.30;77.30;;;;;;5082011;23;20043;-59
2022/03/02 00:49:58;;;;;;;4.05;1.60;;;25.30;77.20;;;;;;5085486;23;20872;-58
2022/03/02 00:52:21;;;;;;;2.58;1.27;;;25.30;77.20;;;;;;5087035;23;20543;-57
2022/03/02 00:54:43;;;;;;;11.23;1.67;;;25.30;77.20;;;;;;5082394;23;20079;-60
2022/03/02 00:57:06;;;;;;;3.65;1.50;;;25.30;77.20;;;;;;5081953;23;20051;-59
2022/03/02 00:59:28;;;;;;;6.03;1.60;;;25.30;77.10;;;;;;5088467;23;20116;-58
2022/03/02 01:01:51;;;;;;;3.85;1.52;;;25.30;77.00;;;;;;5079406;23;20020;-59
2022/03/02 01:04:13;;;;;;;4.65;1.67;;;25.40;77.10;;;;;;5072753;23;20296;-59
2022/03/02 01:06:36;;;;;;;4.03;1.38;;;25.40;77.10;;;;;;5086797;23;20028;-59
2022/03/02 01:08:59;;;;;;;5.38;1.65;;;25.40;77.10;;;;;;5079642;23;20132;-59
2022/03/02 01:11:21;;;;;;;5.57;1.40;;;25.40;77.20;;;;;;5072310;23;20423;-59
2022/03/02 01:13:44;;;;;;;6.22;1.42;;;25.40;77.00;;;;;;5088582;23;20044;-58
2022/03/02 01:16:06;;;;;;;3.92;1.15;;;25.40;77.00;;;;;;5078321;23;20092;-63
2022/03/02 01:18:29;;;;;;;3.53;1.58;;;25.40;77.00;;;;;;5079951;23;20749;-59
2022/03/02 01:20:52;;;;;;;3.87;1.50;;;25.40;76.90;;;;;;5087954;23;20020;-62
2022/03/02 01:23:14;;;;;;;4.70;1.60;;;25.40;76.60;;;;;;5082390;23;20321;-64
2022/03/02 01:25:37;;;;;;;5.68;1.90;;;25.40;76.50;;;;;;5082640;23;20017;-62
2022/03/02 01:28:00;;;;;;;5.03;1.52;;;25.40;76.70;;;;;;5088431;23;20416;-62
2022/03/02 01:30:23;;;;;;;5.85;1.63;;;25.40;76.70;;;;;;5083933;23;20013;-64
2022/03/02 01:32:46;;;;;;;3.33;1.40;;;25.40;76.70;;;;;;5082451;23;20055;-64
2022/03/02 01:35:11;;;;;;;5.68;2.05;;;25.40;76.70;;;;;;5087622;23;20013;-63
2022/03/02 01:37:33;;;;;;;4.55;1.40;;;25.30;76.60;;;;;;5083770;23;20025;-62
2022/03/02 01:39:56;;;;;;;4.30;1.73;;;25.30;76.50;;;;;;5072979;23;20027;-62
2022/03/02 01:42:18;;;;;;;5.07;1.73;;;25.30;76.50;;;;;;5089311;23;20111;-60
2022/03/02 01:44:41;;;;;;;3.35;1.35;;;25.30;76.40;;;;;;5085241;23;20123;-61
2022/03/02 01:47:05;;;;;;;3.47;1.75;;;25.30;76.30;;;;;;5083656;23;20025;-61
2022/03/02 01:49:28;;;;;;;4.57;1.50;;;25.30;76.30;;;;;;5077442;23;20028;-59
2022/03/02 01:51:51;;;;;;;3.55;1.73;;;25.30;76.50;;;;;;5081745;23;20021;-68
2022/03/02 01:54:13;;;;;;;8.02;1.60;;;25.30;76.50;;;;;;5083056;23;20060;-67
2022/03/02 01:56:36;;;;;;;3.25;1.48;;;25.30;76.50;;;;;;5087423;23;20067;-66
2022/03/02 01:58:59;;;;;;;4.78;1.67;;;25.30;76.50;;;;;;5079997;23;20028;-66
2022/03/02 02:01:21;;;;;;;4.00;1.20;;;25.30;76.50;;;;;;5082299;23;20017;-65
2022/03/02 02:03:44;;;;;;;4.50;1.80;;;25.30;76.60;;;;;;5086755;23;20048;-66
2022/03/02 02:06:08;;;;;;;4.53;1.13;;;25.30;76.60;;;;;;5082581;23;20083;-68
2022/03/02 02:08:31;;;;;;;3.90;1.33;;;25.30;76.60;;;;;;5079940;23;20462;-67
2022/03/02 02:10:57;;;;;;;2.88;0.90;;;25.30;76.60;;;;;;5085072;23;20939;-68
2022/03/02 02:13:20;;;;;;;5.28;1.17;;;25.30;76.60;;;;;;5081309;23;20028;-66
2022/03/02 02:15:42;;;;;;;2.85;1.40;;;25.30;76.60;;;;;;5080623;23;20485;-66
2022/03/02 02:18:05;;;;;;;4.15;1.65;;;25.30;77.20;;;;;;5086012;23;20401;-65
2022/03/02 02:20:27;;;;;;;6.00;1.38;;;25.30;76.60;;;;;;5080081;23;20501;-66
2022/03/02 02:22:50;;;;;;;2.95;1.33;;;25.30;77.00;;;;;;5083347;23;20065;-67
2022/03/02 02:25:14;;;;;;;4.00;1.25;;;25.30;76.60;;;;;;5089022;23;20025;-65
2022/03/02 02:27:37;;;;;;;2.38;1.20;;;25.30;76.70;;;;;;5074014;23;20061;-67
2022/03/02 02:30:01;;;;;;;3.35;1.02;;;25.30;76.60;;;;;;5073299;23;20029;-66
2022/03/02 02:32:24;;;;;;;2.58;1.15;;;25.30;76.70;;;;;;5090301;23;20051;-63
2022/03/02 02:34:47;;;;;;;4.30;1.35;;;25.30;77.10;;;;;;5081409;23;20023;-62
2022/03/02 02:37:10;;;;;;;5.18;1.30;;;25.30;76.90;;;;;;5084354;23;20238;-61
2022/03/02 02:39:35;;;;;;;3.92;1.00;;;25.30;76.90;;;;;;5089958;23;20116;-62
2022/03/02 02:42:07;;;;;;;4.20;1.27;;;25.40;77.00;;;;;;5084477;23;20472;-64
2022/03/02 02:44:29;;;;;;;4.25;1.48;;;25.30;76.90;;;;;;5089994;23;20016;-67
2022/03/02 02:46:52;;;;;;;3.47;1.05;;;25.40;76.90;;;;;;5084188;23;20036;-66
2022/03/02 02:49:14;;;;;;;6.68;1.10;;;25.40;76.80;;;;;;5084417;23;20083;-64
2022/03/02 02:51:37;;;;;;;4.43;1.42;;;25.40;76.80;;;;;;5088088;23;20120;-60
2022/03/02 02:53:59;;;;;;;2.78;0.95;;;25.40;76.90;;;;;;5087143;23;20012;-62
2022/03/02 02:56:22;;;;;;;2.65;1.17;;;25.40;76.70;;;;;;5052831;23;20022;-60
2022/03/02 02:58:44;;;;;;;7.00;1.52;;;25.40;76.70;;;;;;5090215;23;20020;-62
2022/03/02 03:01:07;;;;;;;4.97;1.33;;;25.40;76.70;;;;;;5079723;23;20013;-62
2022/03/02 03:03:30;;;;;;;3.38;1.13;;;25.40;76.70;;;;;;5083605;23;20036;-60
2022/03/02 03:05:52;;;;;;;3.75;1.17;;;25.40;76.70;;;;;;5084652;23;20127;-59
2022/03/02 03:08:15;;;;;;;3.42;1.50;;;25.40;76.70;;;;;;5088063;23;20058;-59
2022/03/02 03:10:39;;;;;;;4.40;1.45;;;25.40;76.70;;;;;;5083784;23;20079;-59
2022/03/02 03:13:02;;;;;;;2.55;1.00;;;25.40;76.70;;;;;;5085446;23;20016;-61
2022/03/02 03:15:25;;;;;;;2.75;1.30;;;25.40;76.70;;;;;;5085827;23;20191;-62
2022/03/02 03:17:48;;;;;;;4.85;1.75;;;25.40;76.70;;;;;;5072550;23;20017;-60
2022/03/02 03:20:13;;;;;;;2.70;1.02;;;25.40;76.70;;;;;;5083447;23;20254;-59
2022/03/02 03:22:35;;;;;;;4.90;1.30;;;25.40;76.70;;;;;;5078495;23;20024;-61
2022/03/02 03:24:58;;;;;;;3.95;1.17;;;25.40;76.70;;;;;;5083035;23;20481;-60
2022/03/02 03:27:21;;;;;;;4.07;1.23;;;25.40;77.10;;;;;;5075448;23;20131;-61
2022/03/02 03:29:44;;;;;;;1.65;0.82;;;25.40;76.70;;;;;;5089552;23;20021;-60
2022/03/02 03:32:07;;;;;;;5.45;1.20;;;25.40;76.80;;;;;;5084234;23;20567;-61
2022/03/02 03:34:30;;;;;;;3.17;1.05;;;25.40;76.70;;;;;;5088644;23;20017;-60
2022/03/02 03:36:52;;;;;;;2.80;1.00;;;25.40;76.80;;;;;;5090391;23;20532;-61
2022/03/02 03:39:15;;;;;;;2.97;0.75;;;25.40;76.70;;;;;;5081889;23;20017;-60
2022/03/02 03:41:37;;;;;;;2.75;1.30;;;25.40;76.70;;;;;;5084130;23;20877;-58
2022/03/02 03:44:00;;;;;;;3.17;1.10;;;25.50;76.80;;;;;;5088661;23;20023;-59
2022/03/02 03:46:22;;;;;;;2.65;1.40;;;25.50;76.80;;;;;;5085742;23;20031;-59
2022/03/02 03:48:45;;;;;;;2.42;1.35;;;25.50;76.80;;;;;;5084516;23;21126;-59
2022/03/02 03:51:07;;;;;;;2.63;1.02;;;25.50;76.80;;;;;;5088419;23;20017;-60
2022/03/02 03:53:30;;;;;;;5.43;0.95;;;25.50;76.70;;;;;;5081196;23;20078;-59
2022/03/02 03:55:52;;;;;;;4.78;1.38;;;25.50;76.70;;;;;;5083239;23;20017;-60
2022/03/02 03:58:15;;;;;;;2.72;0.98;;;25.50;76.70;;;;;;5090388;23;20851;-59
2022/03/02 04:00:37;;;;;;;1.75;1.05;;;25.50;76.70;;;;;;5075324;23;20016;-59
2022/03/02 04:02:59;;;;;;;3.83;1.25;;;25.50;76.80;;;;;;5084528;23;20519;-60
2022/03/02 04:05:22;;;;;;;3.10;1.13;;;25.50;76.80;;;;;;5090490;23;20017;-61
2022/03/02 04:07:46;;;;;;;3.28;1.48;;;25.50;76.80;;;;;;5084617;23;20024;-60
2022/03/02 04:10:10;;;;;;;3.65;1.45;;;25.60;77.20;;;;;;5085399;23;20013;-62
2022/03/02 04:12:32;;;;;;;2.88;1.20;;;25.50;76.80;;;;;;5089662;23;20207;-62
2022/03/02 04:14:56;;;;;;;2.35;1.13;;;25.50;76.70;;;;;;5085293;23;20017;-62
2022/03/02 04:17:18;;;;;;;3.45;1.35;;;25.60;76.70;;;;;;5083634;23;20024;-62
2022/03/02 04:19:40;;;;;;;2.25;0.85;;;25.50;76.80;;;;;;5088969;23;20017;-60
2022/03/02 04:22:04;;;;;;;2.97;1.05;;;25.60;76.80;;;;;;5085083;23;20349;-62
2022/03/02 04:24:26;;;;;;;3.88;1.27;;;25.60;76.80;;;;;;5084546;23;20017;-62
2022/03/02 04:26:48;;;;;;;2.50;1.25;;;25.60;76.80;;;;;;5088650;23;20359;-62
2022/03/02 04:29:11;;;;;;;5.70;1.25;;;25.60;76.80;;;;;;5085674;23;20144;-61
2022/03/02 04:31:33;;;;;;;2.97;1.45;;;25.60;76.80;;;;;;5081331;23;20079;-60
2022/03/02 04:33:56;;;;;;;2.05;1.05;;;25.60;76.80;;;;;;5087620;23;20009;-64
2022/03/02 04:36:19;;;;;;;3.80;1.23;;;25.60;76.70;;;;;;5085205;23;20021;-62
2022/03/02 04:38:42;;;;;;;4.22;1.38;;;25.60;76.70;;;;;;5086133;23;20017;-61
2022/03/02 04:41:05;;;;;;;4.50;1.48;;;25.60;76.70;;;;;;5087244;23;20017;-63
2022/03/02 04:43:28;;;;;;;3.67;1.30;;;25.60;76.80;;;;;;5089131;23;20536;-60
2022/03/02 04:45:51;;;;;;;3.03;1.33;;;25.60;76.80;;;;;;5079633;23;20449;-62
2022/03/02 04:48:13;;;;;;;5.03;1.60;;;25.70;76.90;;;;;;5084142;23;20283;-63
2022/03/02 04:50:37;;;;;;;3.50;1.38;;;25.60;76.80;;;;;;5086371;23;20074;-59
2022/03/02 04:53:00;;;;;;;2.30;1.00;;;25.70;76.80;;;;;;5084041;23;20397;-62
2022/03/02 04:55:23;;;;;;;4.50;1.23;;;25.70;76.80;;;;;;5086461;23;20009;-61
2022/03/02 04:58:06;;;;;;;5.17;1.40;;;25.70;76.80;;;;;;5088404;23;20048;-62
2022/03/02 05:00:31;;;;;;;4.65;1.63;;;25.70;76.80;;;;;;5080025;23;20016;-61
2022/03/02 05:02:55;;;;;;;6.47;1.02;;;25.70;76.80;;;;;;5084740;23;20032;-62
2022/03/02 05:05:19;;;;;;;4.97;1.15;;;25.70;76.80;;;;;;5087637;23;20013;-60
2022/03/02 05:07:42;;;;;;;3.28;1.30;;;25.70;76.80;;;;;;5086726;23;20060;-61
2022/03/02 05:10:06;;;;;;;2.85;1.27;;;25.70;76.80;;;;;;5083372;23;20029;-64
2022/03/02 05:12:29;;;;;;;2.92;1.25;;;25.70;76.80;;;;;;5089549;23;20013;-61
2022/03/02 05:14:51;;;;;;;3.10;1.17;;;25.70;76.70;;;;;;5083867;23;20163;-61
2022/03/02 05:17:14;;;;;;;3.35;1.52;;;25.70;76.80;;;;;;5051696;23;20024;-60
2022/03/02 05:19:36;;;;;;;6.15;1.63;;;25.70;76.80;;;;;;5085190;23;20013;-61
2022/03/02 05:21:59;;;;;;;4.70;1.45;;;25.70;76.80;;;;;;5087787;23;20012;-65
2022/03/02 05:24:21;;;;;;;5.07;1.30;;;25.70;76.80;;;;;;5084117;23;20090;-64
2022/03/02 05:26:44;;;;;;;4.85;1.45;;;25.70;76.80;;;;;;5086162;23;20995;-61
2022/03/02 05:29:07;;;;;;;4.80;1.60;;;25.70;76.80;;;;;;5089072;23;20023;-63
2022/03/02 05:31:29;;;;;;;4.30;1.58;;;25.70;76.80;;;;;;5051766;23;20022;-62
2022/03/02 05:33:52;;;;;;;3.22;1.20;;;25.70;76.80;;;;;;5084485;23;20071;-61
2022/03/02 05:36:15;;;;;;;3.65;1.23;;;25.70;76.80;;;;;;5083952;23;20726;-62
2022/03/02 05:38:37;;;;;;;3.97;1.40;;;25.70;76.70;;;;;;5079774;23;20020;-61
2022/03/02 05:41:00;;;;;;;11.80;1.60;;;25.70;76.80;;;;;;5082981;23;20115;-63
2022/03/02 05:43:22;;;;;;;4.40;1.58;;;25.70;76.90;;;;;;5083892;23;20017;-58
2022/03/02 05:45:45;;;;;;;3.80;1.55;;;25.70;76.90;;;;;;5082203;23;20017;-60
2022/03/02 05:48:07;;;;;;;5.53;1.30;;;25.70;76.90;;;;;;5081703;23;20981;-61
2022/03/02 05:50:30;;;;;;;4.70;1.50;;;25.70;76.90;;;;;;5086613;23;20120;-62
2022/03/02 05:52:52;;;;;;;4.25;1.35;;;25.70;76.90;;;;;;5083526;23;20488;-61
2022/03/02 05:55:14;;;;;;;2.20;1.20;;;25.70;76.90;;;;;;5083724;23;20426;-61
2022/03/02 05:57:38;;;;;;;3.25;1.55;;;25.70;77.00;;;;;;5090910;23;20124;-63
2022/03/02 06:00:00;;;;;;;2.50;1.10;;;25.70;76.90;;;;;;5088669;23;20016;-61
2022/03/02 06:02:23;;;;;;;2.85;1.42;;;25.70;76.90;;;;;;5085635;23;20087;-62
2022/03/02 06:04:47;;;;;;;2.90;1.45;;;25.70;76.90;;;;;;5089237;23;20135;-63
2022/03/02 06:07:09;;;;;;;4.50;1.13;;;25.70;76.90;;;;;;5085058;23;20024;-62
2022/03/02 06:09:32;;;;;;;4.25;1.48;;;25.80;77.10;;;;;;5087143;23;20013;-62
2022/03/02 06:11:55;;;;;;;2.72;1.55;;;25.70;76.70;;;;;;5086188;23;20051;-61
2022/03/02 06:14:17;;;;;;;4.15;2.08;;;25.70;76.70;;;;;;5088840;23;20024;-63
2022/03/02 06:16:40;;;;;;;4.35;1.70;;;25.70;76.70;;;;;;5086210;23;20021;-62
2022/03/02 06:19:06;;;;;;;5.72;2.00;;;25.70;76.60;;;;;;5089945;23;20521;-62
2022/03/02 06:21:32;;;;;;;4.25;1.80;;;25.70;76.50;;;;;;5087731;23;20385;-61
2022/03/02 06:23:55;;;;;;;5.00;1.85;;;25.70;76.50;;;;;;5085129;23;20352;-60
2022/03/02 06:26:18;;;;;;;8.70;1.70;;;25.60;76.40;;;;;;5088844;23;20036;-60
2022/03/02 06:28:41;;;;;;;5.37;2.17;;;25.70;76.70;;;;;;5083168;23;20131;-62
2022/03/02 06:31:03;;;;;;;3.70;1.80;;;25.60;76.80;;;;;;5084122;23;20301;-60
2022/03/02 06:33:25;;;;;;;4.60;2.20;;;25.70;76.90;;;;;;5090265;23;20028;-63
2022/03/02 06:35:51;;;;;;;5.22;1.90;;;25.70;77.00;;;;;;5087694;23;20013;-63
2022/03/02 06:38:14;;;;;;;3.38;1.70;;;25.70;77.00;;;;;;5055658;23;20145;-62
2022/03/02 06:40:37;;;;;;;6.13;1.92;;;25.70;77.00;;;;;;5090488;23;20028;-63
2022/03/02 06:43:18;;;;;;;4.00;1.50;;;25.70;77.70;;;;;;5085003;23;20074;-60
2022/03/02 06:45:59;;;;;;;3.25;1.60;;;25.70;77.10;;;;;;5087182;23;20060;-60
2022/03/02 06:48:45;;;;;;;5.80;1.98;;;25.70;77.10;;;;;;5085940;23;20433;-63
2022/03/02 06:51:12;;;;;;;5.10;1.75;;;25.70;77.00;;;;;;5075813;23;20522;-61
2022/03/02 06:53:37;;;;;;;6.15;2.05;;;25.70;77.00;;;;;;5079531;23;20021;-60
2022/03/02 06:56:02;;;;;;;5.43;1.65;;;25.70;77.00;;;;;;5086718;23;20156;-63
2022/03/02 06:58:27;;;;;;;4.30;1.67;;;25.70;77.00;;;;;;5072074;23;20028;-60
2022/03/02 07:00:53;;;;;;;4.65;1.85;;;25.70;77.10;;;;;;5082300;23;20005;-63
2022/03/02 07:03:20;;;;;;;4.90;1.60;;;25.70;77.10;;;;;;5084825;23;20799;-61
2022/03/02 07:05:42;;;;;;;4.05;1.50;;;25.70;77.10;;;;;;5080847;23;20508;-61
2022/03/02 07:08:05;;;;;;;4.53;1.50;;;25.70;77.10;;;;;;5086292;23;20064;-61
2022/03/02 07:10:28;;;;;;;5.13;1.80;;;25.70;77.20;;;;;;5081217;23;20012;-62
2022/03/02 07:12:51;;;;;;;9.13;2.22;;;25.70;77.20;;;;;;5080468;23;21045;-62
2022/03/02 07:15:14;;;;;;;5.45;1.95;;;25.70;77.20;;;;;;5083083;23;20041;-62
2022/03/02 07:17:37;;;;;;;3.85;1.88;;;25.70;77.20;;;;;;5083381;23;20448;-62
2022/03/02 07:20:01;;;;;;;4.40;1.65;;;25.70;77.20;;;;;;5083876;23;20726;-61
2022/03/02 07:22:23;;;;;;;;;;;25.70;77.20;;;;;;5087518;23;20009;-66
2022/03/02 07:25:00;;;;;;;6.25;2.03;;;25.70;77.20;;;;;;5083466;23;19907;-64
2022/03/02 07:27:26;;;;;;;7.75;1.80;;;25.70;77.30;;;;;;5084845;23;20738;-65
2022/03/02 07:29:51;;;;;;;9.13;2.00;;;25.70;77.30;;;;;;5081756;23;20032;-59
2022/03/02 07:32:18;;;;;;;6.10;1.80;;;25.70;77.40;;;;;;5077582;23;20090;-60
2022/03/02 07:34:42;;;;;;;5.25;1.83;;;25.70;76.80;;;;;;5082020;23;20153;-59
2022/03/02 07:37:05;;;;;;;5.50;2.70;;;25.70;76.40;;;;;;5079836;23;20048;-59
2022/03/02 07:39:29;;;;;;;5.28;2.17;;;25.60;76.50;;;;;;5085627;23;20063;-62
2022/03/02 07:41:51;;;;;;;7.63;2.00;;;25.60;77.20;;;;;;5079678;23;20054;-60
2022/03/02 07:44:14;;;;;;;9.57;2.47;;;25.60;76.90;;;;;;5084080;23;20147;-63
2022/03/02 07:46:37;;;;;;;7.60;2.42;;;25.60;76.80;;;;;;5089742;23;20024;-67
2022/03/02 07:49:02;;;;;;;8.25;2.83;;;25.60;77.10;;;;;;5082679;23;20353;-65
2022/03/02 07:51:26;;;;;;;8.40;2.75;;;25.60;77.20;;;;;;5081719;23;20035;-68
2022/03/02 07:53:50;;;;;;;8.55;2.90;;;25.60;77.30;;;;;;5087059;23;20641;-67
2022/03/02 07:56:14;;;;;;;7.80;2.30;;;25.60;77.20;;;;;;5079293;23;20664;-64
2022/03/02 07:58:41;;;;;;;7.45;2.47;;;25.60;77.30;;;;;;5081622;23;20013;-62
2022/03/02 08:01:04;;;;;;;8.27;2.53;;;25.60;77.30;;;;;;5083215;23;20017;-64
2022/03/02 08:03:28;;;;;;;6.75;2.50;;;25.60;77.30;;;;;;5078295;23;20175;-62
2022/03/02 08:05:51;;;;;;;4.80;2.55;;;25.70;77.50;;;;;;5083790;23;20053;-60
2022/03/02 08:08:15;;;;;;;5.70;2.40;;;25.70;77.40;;;;;;5083847;23;20032;-64
2022/03/02 08:10:37;;;;;;;5.50;2.22;;;25.60;77.40;;;;;;5081033;23;20013;-66
2022/03/02 08:13:00;;;;;;;6.32;2.20;;;25.60;77.40;;;;;;5085987;23;20160;-68
2022/03/02 08:15:24;;;;;;;4.65;2.05;;;25.70;77.50;;;;;;5084598;23;20159;-62
2022/03/02 08:17:47;;;;;;;;;;;25.60;77.40;;;;;;5078385;23;20742;-62
2022/03/02 08:20:10;;;;;;;7.90;2.72;;;25.70;77.50;;;;;;5086287;23;19931;-59
2022/03/02 08:22:34;;;;;;;7.70;2.53;;;25.70;77.50;;;;;;5083013;23;20021;-60
2022/03/02 08:25:10;;;;;;;7.10;2.10;;;25.70;77.60;;;;;;5081396;23;20246;-60
2022/03/02 08:27:34;;;;;;;9.43;2.70;;;25.70;77.70;;;;;;5081327;23;20029;-61
2022/03/02 08:30:00;;;;;;;7.30;2.40;;;25.60;77.70;;;;;;5082258;23;20612;-61
2022/03/02 08:32:24;;;;;;;5.18;2.20;;;25.60;77.70;;;;;;5086308;23;20853;-63
2022/03/02 08:34:49;;;;;;;7.28;2.40;;;25.60;77.80;;;;;;5072006;23;20802;-61
2022/03/02 08:37:11;;;;;;;4.93;2.08;;;25.60;77.80;;;;;;5084517;23;20698;-62
2022/03/02 08:39:34;;;;;;;4.80;1.92;;;25.60;77.70;;;;;;5081016;23;20718;-63
2022/03/02 08:41:57;;;;;;;4.10;1.70;;;25.60;77.70;;;;;;5050572;23;20088;-61
2022/03/02 08:44:20;;;;;;;7.43;2.20;;;25.60;77.80;;;;;;5073731;23;20493;-62
2022/03/02 08:46:45;;;;;;;5.57;2.10;;;25.60;77.80;;;;;;5085164;23;20723;-60
2022/03/02 08:49:08;;;;;;;5.63;2.33;;;25.60;77.80;;;;;;5070389;23;20116;-63
2022/03/02 08:51:31;;;;;;;6.95;2.17;;;25.60;77.40;;;;;;5082484;23;20013;-61
2022/03/02 08:54:01;;;;;;;8.10;2.20;;;25.50;76.80;;;;;;5083396;23;20071;-64
2022/03/02 08:56:25;;;;;;;6.50;1.80;;;25.60;77.50;;;;;;5079116;23;20559;-62
2022/03/02 08:58:49;;;;;;;4.22;1.88;;;25.60;77.60;;;;;;5085506;23;20027;-63
2022/03/02 09:01:14;;;;;;;5.80;2.10;;;25.50;77.60;;;;;;5080589;23;20797;-61
2022/03/02 09:03:37;;;;;;;5.32;2.00;;;25.60;77.70;;;;;;5084510;23;20088;-62
2022/03/02 09:06:02;;;;;;;7.63;2.25;;;25.60;77.70;;;;;;5082878;23;20115;-64
2022/03/02 09:08:25;;;;;;;6.13;2.25;;;25.60;77.80;;;;;;5080810;23;20052;-63
2022/03/02 09:10:47;;;;;;;6.18;1.90;;;25.60;77.80;;;;;;5085487;23;20009;-61
2022/03/02 09:13:12;;;;;;;4.75;2.17;;;25.60;77.70;;;;;;5082719;23;20710;-62
2022/03/02 09:15:37;;;;;;;4.03;1.70;;;25.60;77.50;;;;;;5079407;23;20021;-63
2022/03/02 09:18:00;;;;;;;5.57;2.00;;;25.50;76.70;;;;;;5074841;23;20104;-69
2022/03/02 09:20:23;;;;;;;8.00;2.50;;;25.50;76.60;;;;;;5077386;23;20417;-72
2022/03/02 09:22:46;;;;;;;6.55;2.17;;;25.50;76.70;;;;;;5076834;23;20115;-71
2022/03/02 09:25:08;;;;;;;;;;;25.50;76.80;;;;;;5076448;23;20017;-72
2022/03/02 09:27:32;;;;;;;7.90;2.70;;;25.50;77.00;;;;;;5078133;23;19916;-71
2022/03/02 09:29:58;;;;;;;6.07;2.30;;;25.50;77.20;;;;;;5079694;23;20036;-67
2022/03/02 09:32:23;;;;;;;7.88;2.55;;;25.50;77.30;;;;;;5084677;23;20031;-68
2022/03/02 09:34:48;;;;;;;9.32;2.15;;;25.50;77.70;;;;;;5078888;23;20021;-70
2022/03/02 09:37:11;;;;;;;8.65;2.83;;;25.50;77.60;;;;;;5081718;23;20171;-71
2022/03/02 09:39:35;;;;;;;8.00;2.47;;;25.50;77.70;;;;;;5084834;23;20040;-70
2022/03/02 09:42:09;;;;;;;6.78;2.38;;;25.50;77.70;;;;;;5077391;23;20051;-65
2022/03/02 09:44:42;;;;;;;5.75;2.22;;;25.50;77.70;;;;;;5083365;23;20012;-66
2022/03/02 09:47:09;;;;;;;8.30;2.20;;;25.50;77.70;;;;;;5084243;23;21033;-67
2022/03/02 09:49:35;;;;;;;6.80;2.58;;;25.50;77.80;;;;;;5084431;23;20133;-69
2022/03/02 09:52:06;;;;;;;5.82;2.28;;;25.50;78.00;;;;;;5081220;23;20021;-67
2022/03/02 09:54:30;;;;;;;8.15;2.50;;;25.50;78.00;;;;;;5084457;23;20370;-66
2022/03/02 09:56:54;;;;;;;6.95;2.10;;;25.50;78.00;;;;;;5082743;23;20524;-66
2022/03/02 09:59:18;;;;;;;5.55;2.22;;;25.50;78.10;;;;;;5086984;23;20878;-67
2022/03/02 10:01:42;;;;;;;12.93;2.55;;;25.50;78.10;;;;;;5079319;23;20020;-63
2022/03/02 10:04:33;;;;;;;;;;;25.50;78.20;;;;;;5079743;23;20472;-63
2022/03/02 10:07:26;;;;;;;8.18;2.00;;;25.50;78.20;;;;;;5080769;23;19916;-63
2022/03/02 10:09:51;;;;;;;7.93;2.40;;;25.40;78.10;;;;;;5079045;23;20436;-64
2022/03/02 10:12:16;;;;;;;9.75;2.08;;;25.40;78.20;;;;;;5082413;23;20100;-65
2022/03/02 10:14:39;;;;;;;8.63;2.45;;;25.50;78.20;;;;;;5088787;23;20874;-72
2022/03/02 10:17:03;;;;;;;8.30;2.40;;;25.50;78.50;;;;;;5052396;23;20733;-65
2022/03/02 10:19:30;;;;;;;7.50;2.00;;;25.40;78.30;;;;;;5082951;23;20079;-69
2022/03/02 10:22:10;;;;;;;8.05;2.72;;;25.40;78.30;;;;;;5085421;23;20036;-70
2022/03/02 10:24:37;;;;;;;6.70;2.17;;;25.40;78.40;;;;;;5084664;23;20013;-75
2022/03/02 10:27:06;;;;;;;7.10;2.50;;;25.40;78.50;;;;;;5079873;23;20032;-68
2022/03/02 10:30:11;;;;;;;6.80;2.33;;;25.40;78.40;;;;;;5081513;23;20013;-71
2022/03/02 10:32:35;;;;;;;5.75;1.95;;;25.40;78.40;;;;;;5077801;23;20114;-72
2022/03/02 10:35:08;;;;;;;7.93;2.45;;;25.40;78.50;;;;;;5082690;23;20013;-69
2022/03/02 10:37:34;;;;;;;9.07;2.20;;;25.40;78.40;;;;;;5081139;23;20028;-67
2022/03/02 10:40:13;;;;;;;18.17;3.08;;;25.40;79.20;;;;;;5085259;23;20230;-75
2022/03/02 10:42:42;;;;;;;14.43;2.53;;;25.40;78.70;;;;;;5082447;23;20673;-71
2022/03/02 10:45:17;;;;;;;17.63;2.97;;;25.40;78.70;;;;;;5087082;23;20017;-77
2022/03/02 10:47:58;;;;;;;13.82;2.80;;;25.30;78.60;;;;;;5087087;23;21051;-75
2022/03/02 10:50:22;;;;;;;15.70;2.88;;;25.30;78.60;;;;;;5084533;23;21035;-73
2022/03/02 10:52:47;;;;;;;10.63;2.80;;;25.30;78.60;;;;;;5089286;23;20027;-73
2022/03/02 10:55:13;;;;;;;7.88;2.65;;;25.30;78.70;;;;;;5084357;23;20013;-73
2022/03/02 10:57:39;;;;;;;8.25;2.60;;;25.30;78.60;;;;;;5089398;23;20021;-73
2022/03/02 11:00:21;;;;;;;13.50;3.05;;;25.30;78.70;;;;;;5084299;23;20123;-73
2022/03/02 11:02:46;;;;;;;11.48;3.13;;;25.30;78.90;;;;;;5084564;23;20148;-75
2022/03/02 11:05:15;;;;;;;8.73;3.30;;;25.30;79.00;;;;;;5083034;23;20017;-68
2022/03/02 11:07:37;;;;;;;10.95;2.50;;;25.30;79.00;;;;;;5087585;23;20711;-76
2022/03/02 11:10:03;;;;;;;11.70;2.42;;;25.30;79.10;;;;;;5072833;23;20096;-68
2022/03/02 11:12:26;;;;;;;18.58;2.83;;;25.30;79.10;;;;;;5087300;23;20055;-68
2022/03/02 11:15:02;;;;;;;6.38;2.25;;;25.30;79.00;;;;;;5082210;23;20037;-71
2022/03/02 11:17:26;;;;;;;17.75;3.00;;;25.30;79.10;;;;;;5088400;23;20052;-67
2022/03/02 11:19:48;;;;;;;19.90;3.13;;;25.30;79.10;;;;;;5071008;23;20067;-72
2022/03/02 11:22:13;;;;;;;23.20;3.60;;;25.30;79.20;;;;;;5080789;23;20065;-68
2022/03/02 11:24:36;;;;;;;21.70;3.95;;;25.30;79.00;;;;;;5091004;23;20484;-68
2022/03/02 11:26:58;;;;;;;21.10;3.13;;;25.20;78.80;;;;;;5080503;23;20102;-68
2022/03/02 11:29:27;;;;;;;18.42;3.10;;;25.30;79.00;;;;;;5084486;23;20747;-70
2022/03/02 11:31:54;;;;;;;17.35;2.58;;;25.20;79.00;;;;;;5088766;23;20504;-66
2022/03/02 11:34:19;;;;;;;11.05;2.20;;;25.20;79.20;;;;;;5074659;23;20028;-68
2022/03/02 11:36:45;;;;;;;12.15;2.25;;;25.30;79.40;;;;;;5088137;23;20127;-65
2022/03/02 11:39:09;;;;;;;14.95;2.75;;;25.20;79.40;;;;;;5081646;23;20017;-75
2022/03/02 11:41:34;;;;;;;8.82;2.08;;;25.20;79.50;;;;;;5083068;23;20071;-63
2022/03/02 11:43:56;;;;;;;10.18;2.22;;;25.20;79.50;;;;;;5088280;23;20071;-66
2022/03/02 11:46:19;;;;;;;7.18;1.88;;;25.20;79.60;;;;;;5084337;23;20075;-65
2022/03/02 11:48:44;;;;;;;8.43;1.80;;;25.20;79.40;;;;;;5087352;23;20044;-67
2022/03/02 11:51:17;;;;;;;9.15;1.73;;;25.20;79.40;;;;;;5088459;23;20539;-68
2022/03/02 11:53:42;;;;;;;9.88;1.83;;;25.20;79.30;;;;;;5088345;23;20153;-67
2022/03/02 11:56:06;;;;;;;5.50;1.60;;;25.20;79.20;;;;;;5087717;23;20039;-69
2022/03/02 11:58:28;;;;;;;;;;;25.10;79.20;;;;;;5085855;23;20083;-63
2022/03/02 12:00:50;;;;;;;6.65;2.08;;;25.10;79.00;;;;;;5079576;23;19904;-63
2022/03/02 12:03:13;;;;;;;3.88;1.30;;;25.10;79.70;;;;;;5088314;23;20013;-63
2022/03/02 12:05:36;;;;;;;5.78;1.20;;;25.10;79.10;;;;;;5084853;23;20021;-64
2022/03/02 12:08:05;;;;;;;3.60;1.55;;;25.10;79.10;;;;;;5078477;23;20047;-64
2022/03/02 12:10:30;;;;;;;3.35;1.10;;;25.10;79.00;;;;;;5084568;23;20017;-63
2022/03/02 12:12:54;;;;;;;4.40;1.30;;;25.10;79.00;;;;;;5083625;23;20841;-64
2022/03/02 12:15:16;;;;;;;;;;;25.00;78.90;;;;;;5089668;23;20016;-66
2022/03/02 12:17:39;;;;;;;4.85;1.40;;;25.00;79.00;;;;;;5080151;23;19912;-67
2022/03/02 12:20:06;;;;;;;5.53;1.48;;;25.00;79.80;;;;;;5083392;23;20045;-68
2022/03/02 12:22:38;;;;;;;5.38;1.30;;;25.00;79.70;;;;;;5085505;23;20017;-68
2022/03/02 12:25:01;;;;;;;4.50;1.10;;;25.00;79.70;;;;;;5085505;23;20009;-67
2022/03/02 12:27:24;;;;;;;4.20;1.30;;;25.00;79.60;;;;;;5087995;23;20144;-63
2022/03/02 12:29:59;;;;;;;3.03;1.20;;;25.00;79.70;;;;;;5084944;23;20079;-64
2022/03/02 12:32:22;;;;;;;5.90;1.27;;;25.00;79.70;;;;;;5089593;23;20017;-65
2022/03/02 12:34:47;;;;;;;4.68;1.58;;;25.00;79.80;;;;;;5084653;23;20462;-65